Latest Coastal Weather Observations for Onslow Airport

IDW60701

Issued at 2:53 am WST Saturday 27 May 2017 (issued every 10 minutes, with the page automatically refreshed every 10 minutes)

About coastal observations | Map of coastal stations | Coastal observations for WA | Marine services | Other Formats
Station Details ID: 005017 Name: ONSLOW AIRPORT Lat: -21.67 Lon: 115.11 Height: 10.5 m
Data from the previous 72 hours. | See also: Recent months at Onslow Airport
Date/Time
WST
Temp
°C
Wind Pressure Rain since
9am
mm
Weather Cloud Vis
km
Sea
Height
m
Swell
Dir  Spd
kts
Gust
kts
hPa Trend Height
m
Period
s
Dir
27/02:30am 19.0 SSW 9 11 1014.3 - 0.0 - - - - - - -
27/02:00am 19.3 SSW 10 12 1014.5 - 0.0 - - - - - - -
27/01:30am 19.5 SW 9 11 1014.5 - 0.0 - - - - - - -
27/01:00am 19.4 SW 8 9 1014.8 - 0.0 - - - - - - -
27/12:30am 20.0 WSW 7 8 1014.9 - 0.0 - - - - - - -
27/12:00am 20.4 W 5 6 1015.2 - 0.0 - - - - - - -
 
Date/Time
WST
Temp
°C
Wind Pressure Rain since
9am
mm
Weather Cloud Vis
km
Sea
Height
m
Swell
Dir  Spd
kts
Gust
kts
hPa Trend Height
m
Period
s
Dir
26/11:30pm 20.9 W 9 10 1015.2 - 0.0 - - - - - - -
26/11:00pm 20.9 W 8 10 1015.5 - 0.0 - - - - - - -
26/10:30pm 21.0 W 9 10 1015.6 - 0.0 - - - - - - -
26/10:00pm 22.3 WSW 9 11 1015.5 - 0.0 - - - - - - -
26/09:30pm 22.7 W 9 11 1015.5 - 0.0 - - - - - - -
26/09:00pm 22.3 W 9 10 1015.4 - 0.0 - - - - - - -
26/08:30pm 22.5 W 8 9 1015.1 - 0.0 - - - - - - -
26/08:00pm 22.3 W 7 9 1014.8 - 0.0 - - - - - - -
26/07:30pm 22.5 W 7 8 1014.5 - 0.0 - - - - - - -
26/07:00pm 23.3 W 8 9 1014.1 - 0.0 - - - - - - -
26/06:30pm 23.3 W 6 7 1013.8 - 0.0 - - - - - - -
26/06:00pm 24.4 W 7 9 1013.6 - 0.0 - - - - - - -
26/05:30pm 26.0 WNW 9 11 1013.4 - 0.0 - - - - - - -
26/05:00pm 26.9 W 11 13 1013.3 - 0.0 - - - - - - -
26/04:30pm 27.9 W 11 14 1013.2 - 0.0 - - - - - - -
26/04:00pm 28.0 WNW 12 14 1013.1 - 0.0 - - - - - - -
26/03:30pm 28.1 WNW 12 14 1013.2 - 0.0 - - - - - - -
26/03:00pm 29.7 WNW 11 14 1013.2 - 0.0 - - - - - - -
26/02:30pm 29.8 WNW 11 13 1013.4 - 0.0 - - - - - - -
26/02:00pm 30.8 WNW 10 13 1013.6 - 0.0 - - - - - - -
26/01:30pm 30.6 NW 9 11 1013.8 - 0.0 - - - - - - -
26/01:00pm 30.5 NW 9 11 1014.3 - 0.0 - - - - - - -
26/12:30pm 30.8 NW 9 11 1014.7 - 0.0 - - - - - - -
26/12:00pm 32.0 WSW 4 7 1015.0 - 0.0 - - - - - - -
26/11:30am 31.3 S 3 6 1015.4 - 0.0 - - - - - - -
26/11:00am 30.2 S 4 8 1015.8 - 0.0 - - - - - - -
26/10:30am 28.5 SSW 6 8 1016.2 - 0.0 - - - - - - -
26/10:00am 27.1 S 7 9 1016.4 - 0.0 - - - - - - -
26/09:30am 25.1 S 8 10 1016.5 - 0.0 - - - - - - -
26/09:00am 23.6 S 8 10 1016.6 - 0.0 - - - - - - -
26/08:30am 22.1 SSE 9 11 1016.5 - 0.0 - - - - - - -
26/08:00am 20.8 S 10 13 1016.2 - 0.0 - - - - - - -
26/07:30am 19.7 SSE 9 12 1016.1 - 0.0 - - - - - - -
26/07:00am 18.8 SSE 9 11 1015.8 - 0.0 - - - - - - -
26/06:30am 18.6 SSE 7 9 1015.5 - 0.0 - - - - - - -
26/06:00am 19.2 S 8 11 1015.2 - 0.0 - - - - - - -
26/05:30am 18.5 S 7 9 1015.0 - 0.0 - - - - - - -
26/05:00am 19.1 S 8 10 1014.9 - 0.0 - - - - - - -
26/04:30am 19.2 S 7 9 1014.8 - 0.0 - - - - - - -
26/04:00am 19.5 S 7 9 1014.9 - 0.0 - - - - - - -
26/03:30am 20.1 S 7 9 1015.0 - 0.0 - - - - - - -
26/03:00am 20.2 S 8 10 1015.1 - 0.0 - - - - - - -
26/02:30am 20.3 S 7 9 1015.3 - 0.0 - - - - - - -
26/02:00am 20.6 SSW 7 8 1015.6 - 0.0 - - - - - - -
26/01:30am 20.7 SSW 7 9 1015.8 - 0.0 - - - - - - -
26/01:00am 20.8 SSW 7 9 1015.9 - 0.0 - - - - - - -
26/12:30am 21.0 SW 7 9 1015.9 - 0.0 - - - - - - -
26/12:00am 21.4 SW 8 10 1016.1 - 0.0 - - - - - - -
 
Date/Time
WST
Temp
°C
Wind Pressure Rain since
9am
mm
Weather Cloud Vis
km
Sea
Height
m
Swell
Dir  Spd
kts
Gust
kts
hPa Trend Height
m
Period
s
Dir
25/11:30pm 21.6 SW 8 9 1016.3 - 0.0 - - - - - - -
25/11:00pm 21.1 SW 6 7 1016.4 - 0.0 - - - - - - -
25/10:30pm 21.3 SW 6 8 1016.4 - 0.0 - - - - - - -
25/10:00pm 21.9 WSW 6 8 1016.5 - 0.0 - - - - - - -
25/09:30pm 22.3 SW 6 7 1016.5 - 0.0 - - - - - - -
25/09:00pm 22.5 WSW 6 7 1016.4 - 0.0 - - - - - - -
25/08:30pm 22.4 WSW 6 7 1016.2 - 0.0 - - - - - - -
25/08:00pm 22.6 SW 6 7 1016.0 - 0.0 - - - - - - -
25/07:30pm 23.0 SW 6 7 1015.7 - 0.0 - - - - - - -
25/07:00pm 23.2 WSW 5 7 1015.3 - 0.0 - - - - - - -
25/06:30pm 23.5 WNW 6 7 1015.0 - 0.0 - - - - - - -
25/06:00pm 24.3 WNW 6 8 1014.9 - 0.0 - - - - - - -
25/05:30pm 25.8 WNW 7 8 1014.6 - 0.0 - - - - - - -
25/05:00pm 27.3 WNW 8 9 1014.5 - 0.0 - - - - - - -
25/04:30pm 28.5 NW 8 10 1014.2 - 0.0 - - - - - - -
25/04:00pm 29.3 NW 9 12 1014.2 - 0.0 - - - - - - -
25/03:30pm 30.2 NNW 9 12 1014.2 - 0.0 - - - - - - -
25/03:00pm 30.5 NNW 9 11 1014.2 - 0.0 - - - - - - -
25/02:30pm 30.7 NNW 10 13 1014.2 - 0.0 - - - - - - -
25/02:00pm 31.2 NNW 11 15 1014.3 - 0.0 - - - - - - -
25/01:30pm 32.0 N 10 12 1014.5 - 0.0 - - - - - - -
25/01:00pm 33.1 NNE 7 10 1014.8 - 0.0 - - - - - - -
25/12:30pm 32.0 NE 5 7 1015.2 - 0.0 - - - - - - -
25/12:00pm 31.6 ENE 4 6 1015.6 - 0.0 - - - - - - -
25/11:30am 30.8 NE 5 8 1015.9 - 0.0 - - - - - - -
25/11:00am 30.5 E 3 6 1016.2 - 0.0 - - - - - - -
25/10:30am 29.9 ESE 5 6 1016.6 - 0.0 - - - - - - -
25/10:00am 27.8 ESE 5 6 1016.9 - 0.0 - - - - - - -
25/09:30am 25.6 ESE 6 7 1016.8 - 0.0 - - - - - - -
25/09:00am 24.2 SE 5 6 1016.7 - 0.0 - - - - - - -
25/08:30am 23.1 ESE 5 6 1016.6 - 0.0 - - - - - - -
25/08:00am 21.8 ENE 4 5 1016.4 - 0.0 - - - - - - -
25/07:30am 19.7 NNE 3 4 1016.2 - 0.0 - - - - - - -
25/07:00am 18.1 ENE 3 4 1015.8 - 0.0 - - - - - - -
25/06:30am 18.3 E 5 6 1015.4 - 0.0 - - - - - - -
25/06:00am 17.8 ESE 5 6 1015.2 - 0.0 - - - - - - -
25/05:30am 17.6 E 4 6 1015.1 - 0.0 - - - - - - -
25/05:00am 17.9 SE 3 4 1015.1 - 0.0 - - - - - - -
25/04:30am 17.9 SSE 5 6 1015.2 - 0.0 - - - - - - -
25/04:00am 18.3 SE 5 7 1015.2 - 0.0 - - - - - - -
25/03:30am 18.6 SE 5 7 1015.1 - 0.0 - - - - - - -
25/03:00am 18.9 SE 6 8 1015.2 - 0.0 - - - - - - -
25/02:30am 19.6 SSE 6 7 1015.1 - 0.0 - - - - - - -
25/02:00am 20.0 S 7 9 1015.4 - 0.0 - - - - - - -
25/01:30am 19.7 S 7 9 1015.6 - 0.0 - - - - - - -
25/01:00am 20.1 S 7 8 1015.9 - 0.0 - - - - - - -
25/12:30am 20.1 SSW 6 7 1016.0 - 0.0 - - - - - - -
25/12:00am 20.4 SSW 7 8 1016.2 - 0.0 - - - - - - -
 
Date/Time
WST
Temp
°C
Wind Pressure Rain since
9am
mm
Weather Cloud Vis
km
Sea
Height
m
Swell
Dir  Spd
kts
Gust
kts
hPa Trend Height
m
Period
s
Dir
24/11:30pm 20.6 SW 5 6 1016.3 - 0.0 - - - - - - -
24/11:00pm 20.7 SW 4 5 1016.4 - 0.0 - - - - - - -
24/10:30pm 20.7 SW 5 6 1016.5 - 0.0 - - - - - - -
24/10:00pm 21.1 WSW 6 6 1016.5 - 0.0 - - - - - - -
24/09:30pm 21.8 W 7 7 1016.7 - 0.0 - - - - - - -
24/09:00pm 21.7 WSW 6 7 1016.7 - 0.0 - - - - - - -
24/08:30pm 22.0 WSW 6 7 1016.6 - 0.0 - - - - - - -
24/08:00pm 22.2 W 6 7 1016.4 - 0.0 - - - - - - -
24/07:30pm 22.5 WSW 6 7 1016.3 - 0.0 - - - - - - -
24/07:00pm 22.8 W 6 7 1016.0 - 0.0 - - - - - - -
24/06:30pm 23.0 W 5 6 1015.8 - 0.0 - - - - - - -
24/06:00pm 23.7 W 5 6 1015.4 - 0.0 - - - - - - -
24/05:30pm 25.0 WNW 6 7 1015.0 - 0.0 - - - - - - -
24/05:00pm 26.3 WNW 6 7 1014.8 - 0.0 - - - - - - -
24/04:30pm 27.4 NW 6 8 1014.6 - 0.0 - - - - - - -
24/04:00pm 27.7 NNW 7 9 1014.4 - 0.0 - - - - - - -
24/03:30pm 28.2 NNW 7 9 1014.4 - 0.0 - - - - - - -
24/03:00pm 28.7 N 7 11 1014.6 - 0.0 - - - - - - -
24/02:30pm 28.2 NNE 9 12 1014.7 - 0.0 - - - - - - -
24/02:00pm 28.1 NNE 10 14 1014.9 - 0.0 - - - - - - -
24/01:30pm 28.0 NNE 11 14 1015.2 - 0.0 - - - - - - -
24/01:00pm 27.8 NNE 11 14 1015.4 - 0.0 - - - - - - -
24/12:30pm 28.2 NNE 11 15 1015.8 - 0.0 - - - - - - -
24/12:00pm 28.2 NNE 11 14 1016.2 - 0.0 - - - - - - -
24/11:30am 28.6 NNE 10 13 1016.5 - 0.0 - - - - - - -
24/11:00am 27.8 NNE 10 12 1016.9 - 0.0 - - - - - - -
24/10:30am 27.2 NE 8 10 1017.1 - 0.0 - - - - - - -
24/10:00am 25.8 E 11 13 1017.2 - 0.0 - - - - - - -
24/09:30am 24.8 ENE 10 13 1017.2 - 0.0 - - - - - - -
24/09:00am 23.8 E 9 11 1017.2 - 0.0 - - - - - - -
24/08:30am 21.7 E 7 8 1017.1 - 0.0 - - - - - - -
24/08:00am 19.7 ESE 5 7 1017.0 - 0.0 - - - - - - -
24/07:30am 17.7 ESE 5 6 1016.8 - 0.0 - - - - - - -
24/07:00am 15.7 ESE 6 7 1016.3 - 0.0 - - - - - - -
24/06:30am 15.7 ESE 4 4 1016.1 - 0.0 - - - - - - -
24/06:00am 15.4 SE 5 6 1015.8 - 0.0 - - - - - - -
24/05:30am 16.0 SE 5 6 1015.5 - 0.0 - - - - - - -
24/05:00am 15.9 SSE 6 8 1015.4 - 0.0 - - - - - - -
24/04:30am 17.5 SE 3 4 1015.3 - 0.0 - - - - - - -
24/04:00am 17.6 ESE 4 4 1015.3 - 0.0 - - - - - - -
24/03:30am 17.3 SE 4 4 1015.3 - 0.0 - - - - - - -
24/03:00am 17.1 S 4 4 1015.4 - 0.0 - - - - - - -

Other Formats:

Comma delimited format used in spreadsheet applications
http://www.bom.gov.au/fwo/IDW60701/IDW60701.95305.axf

JavaScript Object Notation format (JSON) in row-major order
http://www.bom.gov.au/fwo/IDW60701/IDW60701.95305.json